Current Weather

Theodore F Green State Airpor

Theodore F Green State Airpor, Rhode Island (KPVD)

Report from: Thursday, May 19, 2022 12:51 PM EDT
Current time: Thursday, May 19, 2022 2:00 PM EDT

Nearby weather
Weather history
Weather forecast

Present weatherLight rain, mist
Temperature12.8°C (55.0°F)
Dew point11.1°C (52.0°F)
Winds 10 kts (5.1 m/s, 11.5 mph) South (170°)
Visibility5 mi. (8 km)
Clouds Ceiling: Broken clouds 700 ft. (213 m)
Overcast 1,600 ft. (488 m)
Altimeter29.78 in.Hg (1008 mB)
Precipitiation0.02 in. (1 mm)
Relative humidity89 %
Density altitude87 ft. (26 m)
Sea-level pressure100.8 kPa (1008 mB, 29.78 in.Hg)
Remarks Automated weather observing station with precipitation discriminator
Ceiling
Flight conditions Instrument Meteorological Conditions
Raw dataKPVD 191651Z 17010KT 5SM -RA BR BKN007 OVC016 13/11 A2978 RMK AO2 CIG 005V010 SLP083 P0002 T01280111
An error has occurred. This application may no longer respond until reloaded. Reload 🗙